sensor_id;sensor_type;location;lat;lon;timestamp;P1;durP1;ratioP1;P2;durP2;ratioP2
2576;SDS011;1298;51.252;6.802;2023-09-19T00:01:39;825.20;;;767.15;;
2576;SDS011;1298;51.252;6.802;2023-09-19T00:04:24;749.85;;;693.78;;
2576;SDS011;1298;51.252;6.802;2023-09-19T00:07:12;821.88;;;764.15;;
2576;SDS011;1298;51.252;6.802;2023-09-19T00:10:00;817.83;;;760.03;;
2576;SDS011;1298;51.252;6.802;2023-09-19T00:12:46;753.15;;;697.42;;
2576;SDS011;1298;51.252;6.802;2023-09-19T00:15:35;746.67;;;690.90;;
2576;SDS011;1298;51.252;6.802;2023-09-19T00:18:23;759.50;;;703.40;;
2576;SDS011;1298;51.252;6.802;2023-09-19T00:21:12;741.28;;;685.45;;
2576;SDS011;1298;51.252;6.802;2023-09-19T00:23:58;740.28;;;684.33;;
2576;SDS011;1298;51.252;6.802;2023-09-19T00:26:44;738.75;;;683.00;;
2576;SDS011;1298;51.252;6.802;2023-09-19T00:29:30;731.55;;;676.15;;
2576;SDS011;1298;51.252;6.802;2023-09-19T00:32:16;734.53;;;678.95;;
2576;SDS011;1298;51.252;6.802;2023-09-19T00:35:03;795.60;;;738.50;;
2576;SDS011;1298;51.252;6.802;2023-09-19T00:37:49;803.38;;;746.10;;
2576;SDS011;1298;51.252;6.802;2023-09-19T00:40:35;809.15;;;751.63;;
2576;SDS011;1298;51.252;6.802;2023-09-19T00:43:21;728.92;;;673.10;;
2576;SDS011;1298;51.252;6.802;2023-09-19T00:46:07;725.88;;;670.72;;
2576;SDS011;1298;51.252;6.802;2023-09-19T00:48:53;805.25;;;747.55;;
2576;SDS011;1298;51.252;6.802;2023-09-19T00:51:40;732.13;;;676.22;;
2576;SDS011;1298;51.252;6.802;2023-09-19T00:54:29;732.60;;;676.80;;
2576;SDS011;1298;51.252;6.802;2023-09-19T00:57:15;724.15;;;668.78;;
2576;SDS011;1298;51.252;6.802;2023-09-19T01:00:03;806.72;;;749.28;;
2576;SDS011;1298;51.252;6.802;2023-09-19T01:02:52;741.63;;;685.63;;
2576;SDS011;1298;51.252;6.802;2023-09-19T01:05:38;831.67;;;773.28;;
2576;SDS011;1298;51.252;6.802;2023-09-19T01:08:26;735.50;;;679.88;;
2576;SDS011;1298;51.252;6.802;2023-09-19T01:11:14;740.15;;;684.63;;
2576;SDS011;1298;51.252;6.802;2023-09-19T01:14:20;720.33;;;665.30;;
2576;SDS011;1298;51.252;6.802;2023-09-19T01:17:14;733.97;;;678.40;;
2576;SDS011;1298;51.252;6.802;2023-09-19T01:20:15;730.97;;;675.25;;
2576;SDS011;1298;51.252;6.802;2023-09-19T01:23:10;721.15;;;665.53;;
2576;SDS011;1298;51.252;6.802;2023-09-19T01:26:06;722.78;;;667.15;;
2576;SDS011;1298;51.252;6.802;2023-09-19T01:29:11;798.75;;;741.15;;
2576;SDS011;1298;51.252;6.802;2023-09-19T01:32:16;719.97;;;664.20;;
2576;SDS011;1298;51.252;6.802;2023-09-19T01:35:05;713.78;;;658.72;;
2576;SDS011;1298;51.252;6.802;2023-09-19T01:37:56;724.65;;;669.17;;
2576;SDS011;1298;51.252;6.802;2023-09-19T01:40:43;711.80;;;656.35;;
2576;SDS011;1298;51.252;6.802;2023-09-19T01:43:32;710.50;;;655.58;;
2576;SDS011;1298;51.252;6.802;2023-09-19T01:46:21;725.70;;;670.28;;
2576;SDS011;1298;51.252;6.802;2023-09-19T01:49:18;709.38;;;654.40;;
2576;SDS011;1298;51.252;6.802;2023-09-19T01:52:12;712.90;;;657.75;;
2576;SDS011;1298;51.252;6.802;2023-09-19T01:55:05;791.17;;;733.88;;
2576;SDS011;1298;51.252;6.802;2023-09-19T01:57:54;806.47;;;748.97;;
2576;SDS011;1298;51.252;6.802;2023-09-19T02:00:48;723.42;;;668.08;;
2576;SDS011;1298;51.252;6.802;2023-09-19T02:03:35;720.92;;;665.63;;
2576;SDS011;1298;51.252;6.802;2023-09-19T02:06:23;707.13;;;651.53;;
2576;SDS011;1298;51.252;6.802;2023-09-19T02:09:10;796.47;;;737.63;;
2576;SDS011;1298;51.252;6.802;2023-09-19T02:11:55;713.58;;;658.40;;
2576;SDS011;1298;51.252;6.802;2023-09-19T02:14:42;717.45;;;662.40;;
2576;SDS011;1298;51.252;6.802;2023-09-19T02:17:28;720.08;;;664.63;;
2576;SDS011;1298;51.252;6.802;2023-09-19T02:20:15;795.17;;;737.92;;
2576;SDS011;1298;51.252;6.802;2023-09-19T02:23:02;739.13;;;682.88;;
2576;SDS011;1298;51.252;6.802;2023-09-19T02:25:52;705.63;;;650.75;;
2576;SDS011;1298;51.252;6.802;2023-09-19T02:28:38;722.75;;;667.25;;
2576;SDS011;1298;51.252;6.802;2023-09-19T02:31:23;753.42;;;696.88;;
2576;SDS011;1298;51.252;6.802;2023-09-19T02:34:09;710.70;;;655.88;;
2576;SDS011;1298;51.252;6.802;2023-09-19T02:36:54;721.65;;;666.00;;
2576;SDS011;1298;51.252;6.802;2023-09-19T02:39:41;784.10;;;727.20;;
2576;SDS011;1298;51.252;6.802;2023-09-19T02:42:27;796.08;;;738.08;;
2576;SDS011;1298;51.252;6.802;2023-09-19T02:45:14;704.22;;;648.78;;
2576;SDS011;1298;51.252;6.802;2023-09-19T02:48:01;691.22;;;636.10;;
2576;SDS011;1298;51.252;6.802;2023-09-19T02:50:49;766.40;;;709.53;;
2576;SDS011;1298;51.252;6.802;2023-09-19T02:53:34;721.10;;;665.58;;
2576;SDS011;1298;51.252;6.802;2023-09-19T02:56:21;723.90;;;668.30;;
2576;SDS011;1298;51.252;6.802;2023-09-19T02:59:08;713.17;;;657.97;;
2576;SDS011;1298;51.252;6.802;2023-09-19T03:01:54;707.78;;;652.85;;
2576;SDS011;1298;51.252;6.802;2023-09-19T03:04:39;766.78;;;710.03;;
2576;SDS011;1298;51.252;6.802;2023-09-19T03:07:25;706.45;;;651.33;;
2576;SDS011;1298;51.252;6.802;2023-09-19T03:10:11;686.75;;;631.97;;
2576;SDS011;1298;51.252;6.802;2023-09-19T03:12:58;710.75;;;655.22;;
2576;SDS011;1298;51.252;6.802;2023-09-19T03:15:44;795.60;;;738.00;;
2576;SDS011;1298;51.252;6.802;2023-09-19T03:18:30;709.00;;;653.92;;
2576;SDS011;1298;51.252;6.802;2023-09-19T03:21:16;739.58;;;683.70;;
2576;SDS011;1298;51.252;6.802;2023-09-19T03:24:03;713.50;;;658.22;;
2576;SDS011;1298;51.252;6.802;2023-09-19T03:26:49;700.03;;;645.15;;
2576;SDS011;1298;51.252;6.802;2023-09-19T03:29:36;701.95;;;646.80;;
2576;SDS011;1298;51.252;6.802;2023-09-19T03:32:22;698.03;;;642.33;;
2576;SDS011;1298;51.252;6.802;2023-09-19T03:35:08;765.60;;;709.03;;
2576;SDS011;1298;51.252;6.802;2023-09-19T03:37:55;777.10;;;720.53;;
2576;SDS011;1298;51.252;6.802;2023-09-19T03:40:40;708.22;;;653.05;;
2576;SDS011;1298;51.252;6.802;2023-09-19T03:43:28;783.28;;;725.78;;
2576;SDS011;1298;51.252;6.802;2023-09-19T03:46:15;770.97;;;713.88;;
2576;SDS011;1298;51.252;6.802;2023-09-19T03:49:00;684.75;;;630.05;;
2576;SDS011;1298;51.252;6.802;2023-09-19T03:51:46;698.35;;;643.22;;
2576;SDS011;1298;51.252;6.802;2023-09-19T03:54:31;702.65;;;647.33;;
2576;SDS011;1298;51.252;6.802;2023-09-19T03:57:17;691.75;;;636.65;;
2576;SDS011;1298;51.252;6.802;2023-09-19T04:00:05;760.20;;;703.60;;
2576;SDS011;1298;51.252;6.802;2023-09-19T04:02:56;767.13;;;710.63;;
2576;SDS011;1298;51.252;6.802;2023-09-19T04:05:41;764.40;;;707.90;;
2576;SDS011;1298;51.252;6.802;2023-09-19T04:08:27;709.05;;;653.80;;
2576;SDS011;1298;51.252;6.802;2023-09-19T04:11:13;692.60;;;637.75;;
2576;SDS011;1298;51.252;6.802;2023-09-19T04:13:58;707.90;;;652.70;;
2576;SDS011;1298;51.252;6.802;2023-09-19T04:16:44;704.65;;;648.92;;
2576;SDS011;1298;51.252;6.802;2023-09-19T04:19:31;714.45;;;658.97;;
2576;SDS011;1298;51.252;6.802;2023-09-19T04:22:16;692.55;;;637.53;;
2576;SDS011;1298;51.252;6.802;2023-09-19T04:25:02;768.75;;;711.25;;
2576;SDS011;1298;51.252;6.802;2023-09-19T04:27:50;713.90;;;658.75;;
2576;SDS011;1298;51.252;6.802;2023-09-19T04:30:36;700.75;;;645.45;;
2576;SDS011;1298;51.252;6.802;2023-09-19T04:33:24;684.30;;;629.25;;
2576;SDS011;1298;51.252;6.802;2023-09-19T04:36:12;780.47;;;723.55;;
2576;SDS011;1298;51.252;6.802;2023-09-19T04:38:57;705.33;;;649.92;;
2576;SDS011;1298;51.252;6.802;2023-09-19T04:41:43;702.63;;;646.75;;
2576;SDS011;1298;51.252;6.802;2023-09-19T04:44:31;710.20;;;654.47;;
2576;SDS011;1298;51.252;6.802;2023-09-19T04:47:16;718.67;;;662.95;;
2576;SDS011;1298;51.252;6.802;2023-09-19T04:50:02;795.78;;;737.95;;
2576;SDS011;1298;51.252;6.802;2023-09-19T04:52:50;706.25;;;650.55;;
2576;SDS011;1298;51.252;6.802;2023-09-19T04:55:36;771.38;;;714.38;;
2576;SDS011;1298;51.252;6.802;2023-09-19T04:58:21;706.65;;;651.30;;
2576;SDS011;1298;51.252;6.802;2023-09-19T05:01:07;707.78;;;652.17;;
2576;SDS011;1298;51.252;6.802;2023-09-19T05:03:54;699.28;;;643.97;;
2576;SDS011;1298;51.252;6.802;2023-09-19T05:06:40;699.83;;;644.75;;
2576;SDS011;1298;51.252;6.802;2023-09-19T05:09:27;747.28;;;691.25;;
2576;SDS011;1298;51.252;6.802;2023-09-19T05:12:12;692.15;;;636.95;;
2576;SDS011;1298;51.252;6.802;2023-09-19T05:14:59;692.42;;;637.45;;
2576;SDS011;1298;51.252;6.802;2023-09-19T05:17:47;704.20;;;648.55;;
2576;SDS011;1298;51.252;6.802;2023-09-19T05:20:34;715.42;;;659.53;;
2576;SDS011;1298;51.252;6.802;2023-09-19T05:23:21;698.67;;;643.03;;
2576;SDS011;1298;51.252;6.802;2023-09-19T05:26:08;773.60;;;716.30;;
2576;SDS011;1298;51.252;6.802;2023-09-19T05:28:55;699.22;;;643.80;;
2576;SDS011;1298;51.252;6.802;2023-09-19T05:31:40;701.13;;;645.53;;
2576;SDS011;1298;51.252;6.802;2023-09-19T05:34:27;698.50;;;643.28;;
2576;SDS011;1298;51.252;6.802;2023-09-19T05:37:13;705.53;;;650.38;;
2576;SDS011;1298;51.252;6.802;2023-09-19T05:39:59;703.50;;;648.22;;
2576;SDS011;1298;51.252;6.802;2023-09-19T05:42:46;778.72;;;721.78;;
2576;SDS011;1298;51.252;6.802;2023-09-19T05:45:33;778.50;;;721.15;;
2576;SDS011;1298;51.252;6.802;2023-09-19T05:48:20;702.53;;;647.40;;
2576;SDS011;1298;51.252;6.802;2023-09-19T05:51:05;706.65;;;650.88;;
2576;SDS011;1298;51.252;6.802;2023-09-19T05:53:51;718.35;;;662.83;;
2576;SDS011;1298;51.252;6.802;2023-09-19T05:56:38;792.95;;;735.10;;
2576;SDS011;1298;51.252;6.802;2023-09-19T05:59:25;795.83;;;737.85;;
2576;SDS011;1298;51.252;6.802;2023-09-19T06:02:10;722.90;;;666.88;;
2576;SDS011;1298;51.252;6.802;2023-09-19T06:04:55;696.60;;;641.83;;
2576;SDS011;1298;51.252;6.802;2023-09-19T06:07:41;713.20;;;657.40;;
2576;SDS011;1298;51.252;6.802;2023-09-19T06:10:27;702.95;;;647.72;;
2576;SDS011;1298;51.252;6.802;2023-09-19T06:13:12;716.75;;;661.05;;
2576;SDS011;1298;51.252;6.802;2023-09-19T06:15:59;715.72;;;660.45;;
2576;SDS011;1298;51.252;6.802;2023-09-19T06:18:48;720.35;;;664.85;;
2576;SDS011;1298;51.252;6.802;2023-09-19T06:21:36;791.53;;;733.67;;
2576;SDS011;1298;51.252;6.802;2023-09-19T06:24:22;712.53;;;656.83;;
2576;SDS011;1298;51.252;6.802;2023-09-19T06:27:09;726.90;;;670.65;;
2576;SDS011;1298;51.252;6.802;2023-09-19T06:29:54;803.60;;;745.88;;
2576;SDS011;1298;51.252;6.802;2023-09-19T06:32:41;727.38;;;671.35;;
2576;SDS011;1298;51.252;6.802;2023-09-19T06:35:28;733.25;;;677.05;;
2576;SDS011;1298;51.252;6.802;2023-09-19T06:38:16;754.25;;;697.67;;
2576;SDS011;1298;51.252;6.802;2023-09-19T06:41:02;740.70;;;684.67;;
2576;SDS011;1298;51.252;6.802;2023-09-19T06:43:50;763.15;;;706.33;;
2576;SDS011;1298;51.252;6.802;2023-09-19T06:46:37;822.33;;;763.92;;
2576;SDS011;1298;51.252;6.802;2023-09-19T06:49:25;748.40;;;692.05;;
2576;SDS011;1298;51.252;6.802;2023-09-19T06:52:13;747.03;;;690.72;;
2576;SDS011;1298;51.252;6.802;2023-09-19T06:54:58;753.47;;;696.70;;
2576;SDS011;1298;51.252;6.802;2023-09-19T06:57:47;828.83;;;770.25;;
2576;SDS011;1298;51.252;6.802;2023-09-19T07:00:32;744.20;;;687.78;;
2576;SDS011;1298;51.252;6.802;2023-09-19T07:03:19;747.40;;;691.50;;
2576;SDS011;1298;51.252;6.802;2023-09-19T07:06:08;809.03;;;750.80;;
2576;SDS011;1298;51.252;6.802;2023-09-19T07:08:54;744.17;;;687.47;;
2576;SDS011;1298;51.252;6.802;2023-09-19T07:11:39;832.40;;;773.90;;
2576;SDS011;1298;51.252;6.802;2023-09-19T07:14:25;753.25;;;696.33;;
2576;SDS011;1298;51.252;6.802;2023-09-19T07:17:11;826.10;;;767.45;;
2576;SDS011;1298;51.252;6.802;2023-09-19T07:19:56;778.13;;;720.55;;
2576;SDS011;1298;51.252;6.802;2023-09-19T07:22:44;753.28;;;696.78;;
2576;SDS011;1298;51.252;6.802;2023-09-19T07:25:30;833.17;;;774.28;;
2576;SDS011;1298;51.252;6.802;2023-09-19T07:28:16;762.20;;;705.58;;
2576;SDS011;1298;51.252;6.802;2023-09-19T07:31:02;843.47;;;784.10;;
2576;SDS011;1298;51.252;6.802;2023-09-19T07:33:48;770.10;;;713.50;;
2576;SDS011;1298;51.252;6.802;2023-09-19T07:36:34;762.28;;;705.50;;
2576;SDS011;1298;51.252;6.802;2023-09-19T07:39:22;780.10;;;722.72;;
2576;SDS011;1298;51.252;6.802;2023-09-19T07:42:08;837.90;;;778.83;;
2576;SDS011;1298;51.252;6.802;2023-09-19T07:44:55;834.83;;;776.10;;
2576;SDS011;1298;51.252;6.802;2023-09-19T07:47:43;784.55;;;726.90;;
2576;SDS011;1298;51.252;6.802;2023-09-19T07:50:28;844.78;;;785.78;;
2576;SDS011;1298;51.252;6.802;2023-09-19T07:53:14;773.08;;;715.85;;
2576;SDS011;1298;51.252;6.802;2023-09-19T07:56:03;780.00;;;722.63;;
2576;SDS011;1298;51.252;6.802;2023-09-19T07:58:49;769.30;;;712.35;;
2576;SDS011;1298;51.252;6.802;2023-09-19T08:01:36;834.40;;;775.45;;
2576;SDS011;1298;51.252;6.802;2023-09-19T08:04:23;845.75;;;786.95;;
2576;SDS011;1298;51.252;6.802;2023-09-19T08:07:10;849.85;;;790.22;;
2576;SDS011;1298;51.252;6.802;2023-09-19T08:09:55;788.17;;;730.83;;
2576;SDS011;1298;51.252;6.802;2023-09-19T08:12:44;779.22;;;721.90;;
2576;SDS011;1298;51.252;6.802;2023-09-19T08:15:31;783.25;;;725.58;;
2576;SDS011;1298;51.252;6.802;2023-09-19T08:18:17;832.60;;;774.22;;
2576;SDS011;1298;51.252;6.802;2023-09-19T08:21:02;856.58;;;796.97;;
2576;SDS011;1298;51.252;6.802;2023-09-19T08:23:48;790.58;;;733.08;;
2576;SDS011;1298;51.252;6.802;2023-09-19T08:26:33;860.33;;;800.90;;
2576;SDS011;1298;51.252;6.802;2023-09-19T08:29:22;793.55;;;735.92;;
2576;SDS011;1298;51.252;6.802;2023-09-19T08:32:11;794.17;;;736.72;;
2576;SDS011;1298;51.252;6.802;2023-09-19T08:34:56;798.20;;;740.38;;
2576;SDS011;1298;51.252;6.802;2023-09-19T08:37:42;802.20;;;744.17;;
2576;SDS011;1298;51.252;6.802;2023-09-19T08:40:29;797.53;;;739.30;;
2576;SDS011;1298;51.252;6.802;2023-09-19T08:43:17;792.35;;;734.58;;
2576;SDS011;1298;51.252;6.802;2023-09-19T08:46:09;790.22;;;732.72;;
2576;SDS011;1298;51.252;6.802;2023-09-19T08:48:58;796.72;;;739.28;;
2576;SDS011;1298;51.252;6.802;2023-09-19T08:51:48;810.38;;;752.13;;
2576;SDS011;1298;51.252;6.802;2023-09-19T08:54:40;811.78;;;753.28;;
2576;SDS011;1298;51.252;6.802;2023-09-19T08:57:27;820.15;;;761.60;;
2576;SDS011;1298;51.252;6.802;2023-09-19T09:00:14;880.47;;;819.88;;
2576;SDS011;1298;51.252;6.802;2023-09-19T09:03:03;822.08;;;763.67;;
2576;SDS011;1298;51.252;6.802;2023-09-19T09:05:54;800.35;;;742.45;;
2576;SDS011;1298;51.252;6.802;2023-09-19T09:08:41;815.60;;;757.33;;
2576;SDS011;1298;51.252;6.802;2023-09-19T09:11:27;821.95;;;763.47;;
2576;SDS011;1298;51.252;6.802;2023-09-19T09:14:13;881.78;;;821.60;;
2576;SDS011;1298;51.252;6.802;2023-09-19T09:16:59;825.95;;;767.22;;
2576;SDS011;1298;51.252;6.802;2023-09-19T09:19:46;831.67;;;772.50;;
2576;SDS011;1298;51.252;6.802;2023-09-19T09:22:32;838.03;;;778.97;;
2576;SDS011;1298;51.252;6.802;2023-09-19T09:25:17;829.28;;;770.33;;
2576;SDS011;1298;51.252;6.802;2023-09-19T09:28:03;838.67;;;779.60;;
2576;SDS011;1298;51.252;6.802;2023-09-19T09:30:50;826.55;;;767.17;;
2576;SDS011;1298;51.252;6.802;2023-09-19T09:33:36;847.28;;;787.70;;
2576;SDS011;1298;51.252;6.802;2023-09-19T09:36:34;831.92;;;773.00;;
2576;SDS011;1298;51.252;6.802;2023-09-19T09:39:29;849.38;;;789.50;;
2576;SDS011;1298;51.252;6.802;2023-09-19T09:42:16;856.72;;;797.15;;
2576;SDS011;1298;51.252;6.802;2023-09-19T09:45:17;871.22;;;811.53;;
2576;SDS011;1298;51.252;6.802;2023-09-19T09:48:12;882.00;;;821.50;;
2576;SDS011;1298;51.252;6.802;2023-09-19T09:50:58;866.63;;;806.08;;
2576;SDS011;1298;51.252;6.802;2023-09-19T09:53:48;920.08;;;858.63;;
2576;SDS011;1298;51.252;6.802;2023-09-19T09:56:34;847.95;;;788.47;;
2576;SDS011;1298;51.252;6.802;2023-09-19T09:59:20;854.40;;;794.72;;
2576;SDS011;1298;51.252;6.802;2023-09-19T10:02:07;852.72;;;792.50;;
2576;SDS011;1298;51.252;6.802;2023-09-19T10:04:57;864.70;;;804.35;;
2576;SDS011;1298;51.252;6.802;2023-09-19T10:07:58;842.78;;;783.83;;
2576;SDS011;1298;51.252;6.802;2023-09-19T10:10:57;844.33;;;785.50;;
2576;SDS011;1298;51.252;6.802;2023-09-19T10:13:49;833.95;;;775.47;;
2576;SDS011;1298;51.252;6.802;2023-09-19T10:16:34;837.20;;;778.08;;
2576;SDS011;1298;51.252;6.802;2023-09-19T10:19:23;833.92;;;774.88;;
2576;SDS011;1298;51.252;6.802;2023-09-19T10:22:17;899.72;;;839.03;;
2576;SDS011;1298;51.252;6.802;2023-09-19T10:25:06;850.15;;;790.63;;
2576;SDS011;1298;51.252;6.802;2023-09-19T10:27:54;915.22;;;853.88;;
2576;SDS011;1298;51.252;6.802;2023-09-19T10:30:43;858.53;;;799.08;;
2576;SDS011;1298;51.252;6.802;2023-09-19T10:33:33;858.10;;;798.58;;
2576;SDS011;1298;51.252;6.802;2023-09-19T10:36:22;932.72;;;870.90;;
2576;SDS011;1298;51.252;6.802;2023-09-19T10:39:10;926.97;;;864.92;;
2576;SDS011;1298;51.252;6.802;2023-09-19T10:41:57;875.22;;;815.38;;
2576;SDS011;1298;51.252;6.802;2023-09-19T10:44:51;861.97;;;802.60;;
2576;SDS011;1298;51.252;6.802;2023-09-19T10:47:38;888.20;;;827.55;;
2576;SDS011;1298;51.252;6.802;2023-09-19T10:50:23;876.40;;;816.28;;
2576;SDS011;1298;51.252;6.802;2023-09-19T10:53:09;885.70;;;825.33;;
2576;SDS011;1298;51.252;6.802;2023-09-19T10:55:57;878.70;;;818.55;;
2576;SDS011;1298;51.252;6.802;2023-09-19T10:58:46;882.15;;;821.85;;
2576;SDS011;1298;51.252;6.802;2023-09-19T11:01:44;893.45;;;832.35;;
2576;SDS011;1298;51.252;6.802;2023-09-19T11:04:32;877.33;;;817.35;;
2576;SDS011;1298;51.252;6.802;2023-09-19T11:07:19;890.60;;;829.65;;
2576;SDS011;1298;51.252;6.802;2023-09-19T11:10:05;882.30;;;822.03;;
2576;SDS011;1298;51.252;6.802;2023-09-19T11:12:54;881.78;;;821.25;;
2576;SDS011;1298;51.252;6.802;2023-09-19T11:19:04;890.00;;;829.58;;
2576;SDS011;1298;51.252;6.802;2023-09-19T11:21:54;875.28;;;815.50;;
2576;SDS011;1298;51.252;6.802;2023-09-19T11:24:38;882.72;;;822.40;;
2576;SDS011;1298;51.252;6.802;2023-09-19T11:27:25;870.42;;;810.80;;
2576;SDS011;1298;51.252;6.802;2023-09-19T11:30:27;894.42;;;833.75;;
2576;SDS011;1298;51.252;6.802;2023-09-19T11:33:17;869.58;;;809.95;;
2576;SDS011;1298;51.252;6.802;2023-09-19T11:36:08;871.15;;;810.90;;
2576;SDS011;1298;51.252;6.802;2023-09-19T11:38:59;875.75;;;815.28;;
2576;SDS011;1298;51.252;6.802;2023-09-19T11:41:52;868.85;;;809.28;;
2576;SDS011;1298;51.252;6.802;2023-09-19T11:44:40;934.63;;;872.65;;
2576;SDS011;1298;51.252;6.802;2023-09-19T11:47:26;863.33;;;804.05;;
2576;SDS011;1298;51.252;6.802;2023-09-19T11:50:16;877.38;;;816.95;;
2576;SDS011;1298;51.252;6.802;2023-09-19T11:53:05;872.55;;;812.72;;
2576;SDS011;1298;51.252;6.802;2023-09-19T11:55:54;874.38;;;814.50;;
2576;SDS011;1298;51.252;6.802;2023-09-19T11:58:40;903.55;;;842.83;;
2576;SDS011;1298;51.252;6.802;2023-09-19T12:01:28;853.15;;;793.55;;
2576;SDS011;1298;51.252;6.802;2023-09-19T12:04:15;934.95;;;872.72;;
2576;SDS011;1298;51.252;6.802;2023-09-19T12:07:04;871.22;;;811.50;;
2576;SDS011;1298;51.252;6.802;2023-09-19T12:10:03;878.65;;;818.78;;
2576;SDS011;1298;51.252;6.802;2023-09-19T12:12:54;889.10;;;828.33;;
2576;SDS011;1298;51.252;6.802;2023-09-19T12:15:40;876.83;;;816.58;;
2576;SDS011;1298;51.252;6.802;2023-09-19T12:18:28;870.03;;;810.47;;
2576;SDS011;1298;51.252;6.802;2023-09-19T12:21:21;898.20;;;837.22;;
2576;SDS011;1298;51.252;6.802;2023-09-19T12:24:13;873.63;;;813.70;;
2576;SDS011;1298;51.252;6.802;2023-09-19T12:27:05;884.30;;;823.83;;
2576;SDS011;1298;51.252;6.802;2023-09-19T12:29:51;947.30;;;885.05;;
2576;SDS011;1298;51.252;6.802;2023-09-19T12:32:39;885.63;;;825.13;;
2576;SDS011;1298;51.252;6.802;2023-09-19T12:35:28;950.15;;;887.67;;
2576;SDS011;1298;51.252;6.802;2023-09-19T12:38:25;904.03;;;843.25;;
2576;SDS011;1298;51.252;6.802;2023-09-19T12:41:12;979.00;;;914.70;;
2576;SDS011;1298;51.252;6.802;2023-09-19T12:43:59;985.58;;;921.15;;
2576;SDS011;1298;51.252;6.802;2023-09-19T12:46:45;914.65;;;853.47;;
2576;SDS011;1298;51.252;6.802;2023-09-19T12:49:30;917.97;;;856.77;;
2576;SDS011;1298;51.252;6.802;2023-09-19T12:52:16;911.22;;;849.75;;
2576;SDS011;1298;51.252;6.802;2023-09-19T12:55:03;981.50;;;917.70;;
2576;SDS011;1298;51.252;6.802;2023-09-19T12:57:58;912.47;;;850.67;;
2576;SDS011;1298;51.252;6.802;2023-09-19T13:01:00;957.50;;;893.93;;
2576;SDS011;1298;51.252;6.802;2023-09-19T13:04:09;934.90;;;872.43;;
2576;SDS011;1298;51.252;6.802;2023-09-19T13:07:02;976.00;;;911.73;;
2576;SDS011;1298;51.252;6.802;2023-09-19T13:10:02;980.17;;;916.00;;
2576;SDS011;1298;51.252;6.802;2023-09-19T13:12:50;974.87;;;910.10;;
2576;SDS011;1298;51.252;6.802;2023-09-19T13:15:51;1013.03;;;947.13;;
2576;SDS011;1298;51.252;6.802;2023-09-19T13:18:46;991.97;;;927.07;;
2576;SDS011;1298;51.252;6.802;2023-09-19T13:21:36;1060.43;;;992.87;;
2576;SDS011;1298;51.252;6.802;2023-09-19T13:24:29;995.63;;;930.37;;
2576;SDS011;1298;51.252;6.802;2023-09-19T13:27:17;990.37;;;925.90;;
2576;SDS011;1298;51.252;6.802;2023-09-19T13:30:02;993.47;;;928.97;;
2576;SDS011;1298;51.252;6.802;2023-09-19T13:32:48;988.50;;;923.93;;
2576;SDS011;1298;51.252;6.802;2023-09-19T13:35:34;971.13;;;906.83;;
2576;SDS011;1298;51.252;6.802;2023-09-19T13:38:23;994.57;;;930.00;;
2576;SDS011;1298;51.252;6.802;2023-09-19T13:41:09;966.80;;;903.23;;
2576;SDS011;1298;51.252;6.802;2023-09-19T13:43:55;963.60;;;900.13;;
2576;SDS011;1298;51.252;6.802;2023-09-19T13:46:40;1002.47;;;937.20;;
2576;SDS011;1298;51.252;6.802;2023-09-19T13:49:29;944.33;;;881.40;;
2576;SDS011;1298;51.252;6.802;2023-09-19T13:52:15;942.38;;;879.80;;
2576;SDS011;1298;51.252;6.802;2023-09-19T13:55:03;994.50;;;929.73;;
2576;SDS011;1298;51.252;6.802;2023-09-19T13:57:50;942.08;;;879.45;;
2576;SDS011;1298;51.252;6.802;2023-09-19T14:00:38;939.53;;;877.15;;
2576;SDS011;1298;51.252;6.802;2023-09-19T14:03:23;937.13;;;874.65;;
2576;SDS011;1298;51.252;6.802;2023-09-19T14:06:11;929.13;;;866.97;;
2576;SDS011;1298;51.252;6.802;2023-09-19T14:08:57;932.55;;;870.17;;
2576;SDS011;1298;51.252;6.802;2023-09-19T14:11:46;968.97;;;905.67;;
2576;SDS011;1298;51.252;6.802;2023-09-19T14:14:32;982.35;;;918.20;;
2576;SDS011;1298;51.252;6.802;2023-09-19T14:17:17;928.88;;;867.05;;
2576;SDS011;1298;51.252;6.802;2023-09-19T14:20:03;921.72;;;860.33;;
2576;SDS011;1298;51.252;6.802;2023-09-19T14:22:50;925.17;;;862.50;;
2576;SDS011;1298;51.252;6.802;2023-09-19T14:25:36;968.83;;;904.00;;
2576;SDS011;1298;51.252;6.802;2023-09-19T14:28:23;918.42;;;856.95;;
2576;SDS011;1298;51.252;6.802;2023-09-19T14:31:10;919.78;;;858.50;;
2576;SDS011;1298;51.252;6.802;2023-09-19T14:33:56;901.97;;;840.97;;
2576;SDS011;1298;51.252;6.802;2023-09-19T14:36:42;980.17;;;916.07;;
2576;SDS011;1298;51.252;6.802;2023-09-19T14:39:28;919.92;;;858.35;;
2576;SDS011;1298;51.252;6.802;2023-09-19T14:42:14;920.47;;;858.90;;
2576;SDS011;1298;51.252;6.802;2023-09-19T14:45:02;911.83;;;850.65;;
2576;SDS011;1298;51.252;6.802;2023-09-19T14:47:50;976.22;;;912.78;;
2576;SDS011;1298;51.252;6.802;2023-09-19T14:50:38;984.53;;;920.47;;
2576;SDS011;1298;51.252;6.802;2023-09-19T14:53:24;969.00;;;905.37;;
2576;SDS011;1298;51.252;6.802;2023-09-19T14:56:11;896.10;;;835.60;;
2576;SDS011;1298;51.252;6.802;2023-09-19T14:58:58;899.33;;;838.47;;
2576;SDS011;1298;51.252;6.802;2023-09-19T15:01:45;923.38;;;861.50;;
2576;SDS011;1298;51.252;6.802;2023-09-19T15:04:33;910.42;;;848.80;;
2576;SDS011;1298;51.252;6.802;2023-09-19T15:07:19;911.35;;;849.95;;
2576;SDS011;1298;51.252;6.802;2023-09-19T15:10:05;927.10;;;864.72;;
2576;SDS011;1298;51.252;6.802;2023-09-19T15:12:53;911.22;;;849.53;;
2576;SDS011;1298;51.252;6.802;2023-09-19T15:15:39;971.35;;;907.75;;
2576;SDS011;1298;51.252;6.802;2023-09-19T15:18:26;965.40;;;902.07;;
2576;SDS011;1298;51.252;6.802;2023-09-19T15:21:12;980.00;;;915.58;;
2576;SDS011;1298;51.252;6.802;2023-09-19T15:23:59;915.70;;;854.13;;
2576;SDS011;1298;51.252;6.802;2023-09-19T15:26:44;980.20;;;916.20;;
2576;SDS011;1298;51.252;6.802;2023-09-19T15:29:31;984.95;;;921.10;;
2576;SDS011;1298;51.252;6.802;2023-09-19T15:32:17;926.63;;;864.78;;
2576;SDS011;1298;51.252;6.802;2023-09-19T15:35:04;919.30;;;858.00;;
2576;SDS011;1298;51.252;6.802;2023-09-19T15:37:51;903.90;;;842.50;;
2576;SDS011;1298;51.252;6.802;2023-09-19T15:40:45;919.67;;;858.20;;
2576;SDS011;1298;51.252;6.802;2023-09-19T15:43:31;966.50;;;903.03;;
2576;SDS011;1298;51.252;6.802;2023-09-19T15:46:18;935.45;;;873.38;;
2576;SDS011;1298;51.252;6.802;2023-09-19T15:49:04;940.77;;;878.30;;
2576;SDS011;1298;51.252;6.802;2023-09-19T15:51:52;932.35;;;870.10;;
2576;SDS011;1298;51.252;6.802;2023-09-19T15:54:37;950.58;;;887.88;;
2576;SDS011;1298;51.252;6.802;2023-09-19T15:57:27;941.45;;;879.03;;
2576;SDS011;1298;51.252;6.802;2023-09-19T16:00:14;996.97;;;932.08;;
2576;SDS011;1298;51.252;6.802;2023-09-19T16:03:04;934.47;;;872.28;;
2576;SDS011;1298;51.252;6.802;2023-09-19T16:05:49;940.73;;;878.23;;
2576;SDS011;1298;51.252;6.802;2023-09-19T16:08:37;960.13;;;896.83;;
2576;SDS011;1298;51.252;6.802;2023-09-19T16:11:24;933.37;;;870.87;;
2576;SDS011;1298;51.252;6.802;2023-09-19T16:14:10;955.20;;;892.33;;
2576;SDS011;1298;51.252;6.802;2023-09-19T16:16:56;958.78;;;895.00;;
2576;SDS011;1298;51.252;6.802;2023-09-19T16:19:42;992.17;;;927.17;;
2576;SDS011;1298;51.252;6.802;2023-09-19T16:22:28;981.53;;;916.67;;
2576;SDS011;1298;51.252;6.802;2023-09-19T16:25:15;994.83;;;929.83;;